CheckWX is a tool to help pilots better visualize weather data.  It is not intended as a substitute for an official pre-flight weather briefing.

20:12:25 UTC

KDPA TAF
Dupage Airport
Chicago/West Chicago, Illinois, USA
KDPA 161727Z 1618/1718 VRB03KT P6SM FEW150 SCT250 FM170200 11004KT P6SM BKN090 FM171400 14012G19KT P6SM SCT020 OVC060

Feb-16@
18:00 UTC

Feb-16 @ 18:00 UTC

Feb-17@
02:00 UTC

Feb-17 @ 02:00 UTC

KDPA 161727Z 1618/1718 VRB03KT P6SM FEW150 SCT250
Wind
  • Variable at 3 KTS
Cloud Levels
  • Few at 15,000' AGL
  • Scattered at 25,000' AGL

Feb-17@
02:00 UTC

Feb-17 @ 02:00 UTC

Feb-17@
14:00 UTC

Feb-17 @ 14:00 UTC

FM170200 11004KT P6SM BKN090

From

From Standard forecast or significant change

Wind
  • 110° at 4 KTS
Cloud Levels
  • Broken at 9,000' AGL

Feb-17@
14:00 UTC

Feb-17 @ 14:00 UTC

Feb-17@
18:00 UTC

Feb-17 @ 18:00 UTC

FM171400 14012G19KT P6SM SCT020 OVC060

From

From Standard forecast or significant change

Wind
  • 140° at 12 KTS
  • {Gusting to 19 KTS
Cloud Levels
  • Scattered at 2,000' AGL
  • Overcast at 6,000' AGL